Time;durP1;ratioP1;P1;durP2;ratioP2;P2;SDS_P1;SDS_P2;PMS_P1;PMS_P2;Temp;Humidity;BMP_temperature;BMP_pressure;BME280_temperature;BME280_humidity;BME280_pressure;Samples;Min_cycle;Max_cycle;Signal;HPM_P1;HPM_P2
2022/03/26 00:01:51;;;;;;;57.47;23.60;;;4.60;86.40;;;;;;5100045;27;20041;-65
2022/03/26 00:04:17;;;;;;;55.97;24.45;;;4.60;85.60;;;;;;5094484;27;20039;-65
2022/03/26 00:06:42;;;;;;;57.85;25.38;;;4.60;86.30;;;;;;5096014;28;20384;-65
2022/03/26 00:09:08;;;;;;;63.67;27.30;;;4.60;85.90;;;;;;5105114;27;20035;-65
2022/03/26 00:11:34;;;;;;;73.15;30.10;;;4.60;86.00;;;;;;5104157;27;20459;-65
2022/03/26 00:13:59;;;;;;;67.30;28.25;;;4.60;85.90;;;;;;5102690;27;20043;-65
2022/03/26 00:16:25;;;;;;;64.93;26.88;;;4.60;85.80;;;;;;5129386;27;20031;-66
2022/03/26 00:18:50;;;;;;;63.78;27.58;;;4.50;85.80;;;;;;5098767;27;20051;-65
2022/03/26 00:21:16;;;;;;;62.30;26.00;;;4.50;86.10;;;;;;5100487;28;20058;-65
2022/03/26 00:23:41;;;;;;;60.65;24.65;;;4.50;86.30;;;;;;5106360;27;20031;-66
2022/03/26 00:26:10;;;;;;;68.50;28.75;;;4.60;87.60;;;;;;5111428;27;20404;-66
2022/03/26 00:28:37;;;;;;;70.47;28.10;;;4.50;87.80;;;;;;5105721;27;20039;-65
2022/03/26 00:31:04;;;;;;;67.88;28.58;;;4.50;87.20;;;;;;5083240;27;20481;-65
2022/03/26 00:33:30;;;;;;;69.72;29.02;;;4.50;87.80;;;;;;5105575;27;20146;-65
2022/03/26 00:35:56;;;;;;;74.00;29.98;;;4.50;87.90;;;;;;5116249;27;20099;-65
2022/03/26 00:38:22;;;;;;;69.50;28.48;;;4.50;88.00;;;;;;5087255;28;20043;-65
2022/03/26 00:40:47;;;;;;;65.25;26.33;;;4.40;88.30;;;;;;5104901;27;20059;-65
2022/03/26 00:43:13;;;;;;;66.40;27.48;;;4.40;89.40;;;;;;5095747;27;20040;-65
2022/03/26 00:45:39;;;;;;;74.35;28.92;;;4.40;90.40;;;;;;5128031;27;20344;-65
2022/03/26 00:48:05;;;;;;;66.07;28.10;;;4.40;90.70;;;;;;5109743;27;20062;-64
2022/03/26 00:50:30;;;;;;;73.32;30.60;;;4.40;90.40;;;;;;5095749;27;20116;-65
2022/03/26 00:52:56;;;;;;;69.88;29.30;;;4.40;90.30;;;;;;5105060;27;20043;-65
2022/03/26 00:55:22;;;;;;;78.35;30.50;;;4.30;90.40;;;;;;5108989;27;20070;-65
2022/03/26 00:57:47;;;;;;;76.13;31.48;;;4.30;90.30;;;;;;5097674;27;20044;-66
2022/03/26 01:00:14;;;;;;;74.70;29.75;;;4.30;90.80;;;;;;5114630;27;20114;-64
2022/03/26 01:02:40;;;;;;;76.57;29.45;;;4.30;91.00;;;;;;5106060;27;20027;-64
2022/03/26 01:05:06;;;;;;;73.25;29.15;;;4.30;90.60;;;;;;5101825;28;20076;-65
2022/03/26 01:07:32;;;;;;;74.40;31.00;;;4.20;90.60;;;;;;5109096;27;20468;-64
2022/03/26 01:09:58;;;;;;;77.35;29.88;;;4.10;90.50;;;;;;5101315;27;20588;-65
2022/03/26 01:12:25;;;;;;;78.97;30.25;;;4.10;90.60;;;;;;5113366;27;20047;-64
2022/03/26 01:14:51;;;;;;;71.10;29.63;;;4.10;90.80;;;;;;5115143;27;20093;-64
2022/03/26 01:17:17;;;;;;;72.38;29.92;;;4.10;91.00;;;;;;5095818;27;20360;-65
2022/03/26 01:19:43;;;;;;;73.65;29.42;;;4.00;91.10;;;;;;5089309;27;20054;-65
2022/03/26 01:22:09;;;;;;;75.53;30.67;;;4.10;91.60;;;;;;5095667;27;20055;-65
2022/03/26 01:24:34;;;;;;;75.82;29.70;;;4.10;91.30;;;;;;5103361;27;20038;-65
2022/03/26 01:27:00;;;;;;;86.55;33.28;;;4.10;91.90;;;;;;5104222;27;20501;-66
2022/03/26 01:29:26;;;;;;;80.22;32.75;;;4.10;92.30;;;;;;5097677;27;20048;-65
2022/03/26 01:31:52;;;;;;;88.32;32.08;;;3.90;92.40;;;;;;5093197;28;20309;-65
2022/03/26 01:34:19;;;;;;;82.75;33.10;;;4.00;92.30;;;;;;5111922;27;20157;-66
2022/03/26 01:36:44;;;;;;;89.30;33.40;;;4.00;92.80;;;;;;5108860;27;20076;-65
2022/03/26 01:39:10;;;;;;;92.75;34.28;;;3.90;92.40;;;;;;5098204;27;20043;-64
2022/03/26 01:41:36;;;;;;;92.88;35.53;;;4.00;92.20;;;;;;5108636;27;20039;-64
2022/03/26 01:44:03;;;;;;;89.18;35.03;;;4.10;92.20;;;;;;5109131;27;20047;-65
2022/03/26 01:46:53;;;;;;;83.30;31.70;;;4.00;92.00;;;;;;5111532;27;20035;-64
2022/03/26 01:49:19;;;;;;;80.80;29.85;;;4.00;93.20;;;;;;5093284;27;20496;-66
2022/03/26 01:51:45;;;;;;;85.10;32.40;;;4.00;92.30;;;;;;5093296;27;20047;-65
2022/03/26 01:54:11;;;;;;;81.93;31.70;;;4.00;92.30;;;;;;5095470;27;20056;-65
2022/03/26 01:56:38;;;;;;;86.40;34.17;;;3.90;92.20;;;;;;5094412;28;20411;-65
2022/03/26 01:59:05;;;;;;;91.75;35.60;;;3.90;92.30;;;;;;5103564;28;20039;-65
2022/03/26 02:01:34;;;;;;;92.78;35.20;;;3.90;92.90;;;;;;5090057;27;20140;-65
2022/03/26 02:04:08;;;;;;;93.68;36.53;;;3.90;93.50;;;;;;5091518;28;20043;-65
2022/03/26 02:06:36;;;;;;;101.90;36.15;;;3.80;94.00;;;;;;5108801;27;20065;-64
2022/03/26 02:09:20;;;;;;;97.60;36.08;;;3.70;94.20;;;;;;5094777;27;20165;-65
2022/03/26 02:11:46;;;;;;;103.93;38.50;;;3.80;95.40;;;;;;5092238;28;20520;-65
2022/03/26 02:14:13;;;;;;;100.60;36.45;;;3.80;95.10;;;;;;5093618;28;20040;-65
2022/03/26 02:16:40;;;;;;;105.68;38.00;;;3.80;94.90;;;;;;5077842;28;20040;-64
2022/03/26 02:19:08;;;;;;;95.75;36.83;;;3.70;94.70;;;;;;5094228;27;20070;-65
2022/03/26 02:21:35;;;;;;;107.13;38.17;;;3.70;94.90;;;;;;5091524;28;20387;-65
2022/03/26 02:24:08;;;;;;;103.95;38.22;;;3.70;95.90;;;;;;5108311;27;20410;-65
2022/03/26 02:26:34;;;;;;;108.53;40.22;;;3.70;95.90;;;;;;5108270;27;20070;-65
2022/03/26 02:29:07;;;;;;;108.80;41.75;;;3.60;96.40;;;;;;5109428;27;20042;-66
2022/03/26 02:31:33;;;;;;;102.55;38.88;;;3.60;96.40;;;;;;5096341;27;20356;-65
2022/03/26 02:33:58;;;;;;;109.47;39.92;;;3.60;95.80;;;;;;5094118;27;20066;-65
2022/03/26 02:36:24;;;;;;;113.57;41.20;;;3.60;96.10;;;;;;5105716;28;20051;-65
2022/03/26 02:38:50;;;;;;;111.35;41.70;;;3.50;97.00;;;;;;5090281;28;20038;-65
2022/03/26 02:41:15;;;;;;;111.75;41.35;;;3.60;96.50;;;;;;5113906;27;20044;-65
2022/03/26 02:43:41;;;;;;;112.90;42.63;;;3.50;95.70;;;;;;5077129;28;20570;-64
2022/03/26 02:46:06;;;;;;;120.85;43.55;;;3.50;95.40;;;;;;5102807;27;20066;-65
2022/03/26 02:48:34;;;;;;;130.38;43.63;;;3.40;95.20;;;;;;5100158;27;20466;-64
2022/03/26 02:50:59;;;;;;;126.80;45.17;;;3.50;95.40;;;;;;5111832;27;20428;-65
2022/03/26 02:53:25;;;;;;;121.97;45.15;;;3.50;96.50;;;;;;5112409;27;20122;-64
2022/03/26 02:55:52;;;;;;;119.93;44.22;;;3.50;96.40;;;;;;5108361;27;20428;-66
2022/03/26 02:58:18;;;;;;;133.77;47.15;;;3.50;96.70;;;;;;5106976;27;20054;-64
2022/03/26 03:00:44;;;;;;;129.75;48.25;;;3.50;96.20;;;;;;5101388;28;20457;-64
2022/03/26 03:03:10;;;;;;;133.88;44.92;;;3.40;95.80;;;;;;5095868;27;20038;-65
2022/03/26 03:05:35;;;;;;;120.47;44.13;;;3.40;95.60;;;;;;5109994;27;20042;-64
2022/03/26 03:08:02;;;;;;;121.20;44.35;;;3.40;95.70;;;;;;5092859;27;20097;-64
2022/03/26 03:10:28;;;;;;;111.65;39.88;;;3.30;95.70;;;;;;5129884;27;20039;-64
2022/03/26 03:12:54;;;;;;;105.90;39.47;;;3.30;95.90;;;;;;5106551;27;20038;-65
2022/03/26 03:15:20;;;;;;;111.90;42.53;;;3.30;95.80;;;;;;5108740;27;20038;-64
2022/03/26 03:17:48;;;;;;;115.45;42.58;;;3.20;95.70;;;;;;5107201;27;20099;-64
2022/03/26 03:20:15;;;;;;;122.10;44.08;;;3.10;95.70;;;;;;5110453;28;20047;-65
2022/03/26 03:22:41;;;;;;;117.47;40.45;;;3.10;95.90;;;;;;5083120;28;20040;-64
2022/03/26 03:25:08;;;;;;;106.05;39.80;;;3.10;96.00;;;;;;5094455;27;20089;-65
2022/03/26 03:27:35;;;;;;;107.53;40.15;;;3.20;96.30;;;;;;5109978;28;20451;-66
2022/03/26 03:30:00;;;;;;;111.65;42.88;;;3.10;96.90;;;;;;5094006;28;20134;-66
2022/03/26 03:32:26;;;;;;;121.13;43.85;;;3.20;96.30;;;;;;5084429;28;20089;-65
2022/03/26 03:34:52;;;;;;;123.25;43.35;;;3.20;96.70;;;;;;5098941;28;20167;-64
2022/03/26 03:37:18;;;;;;;122.30;43.72;;;3.20;97.00;;;;;;5098846;28;20419;-64
2022/03/26 03:39:44;;;;;;;119.05;43.13;;;3.20;97.10;;;;;;5107348;28;20240;-65
2022/03/26 03:42:09;;;;;;;131.20;48.30;;;3.20;97.20;;;;;;5098504;28;20070;-66
2022/03/26 03:44:35;;;;;;;137.93;50.35;;;3.30;97.90;;;;;;5107091;28;20067;-64
2022/03/26 03:47:02;;;;;;;129.23;47.22;;;3.30;98.30;;;;;;5101745;28;20106;-64
2022/03/26 03:49:31;;;;;;;132.75;49.15;;;3.40;98.40;;;;;;5095807;28;20057;-64
2022/03/26 03:51:57;;;;;;;134.50;48.40;;;3.30;99.10;;;;;;5098466;28;20501;-65
2022/03/26 03:54:23;;;;;;;139.23;49.25;;;3.40;98.60;;;;;;5104070;28;20043;-64
2022/03/26 03:56:49;;;;;;;146.02;51.53;;;3.40;98.90;;;;;;5106534;28;20027;-65
2022/03/26 03:59:14;;;;;;;148.05;51.90;;;3.50;98.80;;;;;;5089807;28;20075;-65
2022/03/26 04:01:40;;;;;;;146.45;52.53;;;3.50;99.50;;;;;;5107010;28;20114;-65
2022/03/26 04:04:05;;;;;;;151.85;53.75;;;3.60;99.40;;;;;;5095093;28;20092;-65
2022/03/26 04:06:31;;;;;;;149.38;52.20;;;3.60;99.10;;;;;;5092000;28;20051;-65
2022/03/26 04:08:57;;;;;;;148.18;51.42;;;3.60;99.50;;;;;;5088794;28;20096;-64
2022/03/26 04:11:22;;;;;;;162.63;56.58;;;3.70;99.40;;;;;;5106046;28;20043;-64
2022/03/26 04:13:50;;;;;;;157.95;52.22;;;3.70;99.10;;;;;;5107746;28;20089;-64
2022/03/26 04:16:16;;;;;;;144.68;49.08;;;3.70;98.70;;;;;;5127835;28;20064;-65
2022/03/26 04:18:42;;;;;;;118.35;43.15;;;3.60;97.90;;;;;;5104676;28;20051;-66
2022/03/26 04:21:07;;;;;;;121.15;46.05;;;3.50;97.50;;;;;;5107670;28;20043;-64
2022/03/26 04:23:33;;;;;;;124.55;44.72;;;3.50;97.30;;;;;;5090750;28;20039;-65
2022/03/26 04:25:59;;;;;;;127.65;43.95;;;3.40;97.10;;;;;;5088679;28;20116;-65
2022/03/26 04:28:24;;;;;;;130.73;46.95;;;3.40;97.10;;;;;;5099616;28;20076;-64
2022/03/26 04:30:50;;;;;;;124.65;46.47;;;3.30;96.90;;;;;;5112031;28;20075;-65
2022/03/26 04:33:15;;;;;;;124.80;43.85;;;3.20;96.90;;;;;;5106879;28;20043;-65
2022/03/26 04:35:41;;;;;;;119.95;44.58;;;3.10;97.00;;;;;;5101288;28;20483;-65
2022/03/26 04:38:06;;;;;;;121.68;43.78;;;3.10;97.00;;;;;;5097856;28;20033;-64
2022/03/26 04:40:32;;;;;;;114.72;42.10;;;3.10;96.90;;;;;;5110164;28;20104;-66
2022/03/26 04:42:58;;;;;;;115.07;42.15;;;3.00;96.80;;;;;;5094719;28;20461;-65
2022/03/26 04:45:23;;;;;;;114.90;42.75;;;2.90;96.70;;;;;;5095198;27;20039;-65
2022/03/26 04:47:49;;;;;;;132.05;45.10;;;2.80;97.10;;;;;;5103926;27;20373;-64
2022/03/26 04:50:15;;;;;;;120.22;44.90;;;2.70;98.30;;;;;;5085790;27;20074;-64
2022/03/26 04:52:41;;;;;;;127.50;43.25;;;2.70;99.80;;;;;;5107737;27;20066;-64
2022/03/26 04:55:09;;;;;;;120.68;43.42;;;2.60;99.60;;;;;;5078049;28;20036;-65
2022/03/26 04:57:39;;;;;;;135.43;46.55;;;2.60;99.90;;;;;;5096042;27;20086;-64
2022/03/26 05:00:05;;;;;;;;;;;2.60;99.80;;;;;;5111718;27;20039;-65
2022/03/26 05:02:31;;;;;;;118.38;41.42;;;2.70;99.90;;;;;;5077198;28;19920;-65
2022/03/26 05:04:56;;;;;;;121.65;45.70;;;2.70;99.10;;;;;;5101169;27;20039;-64
2022/03/26 05:10:06;;;;;;;137.48;47.05;;;2.60;98.60;;;;;;5095524;27;20050;-65
2022/03/26 05:12:32;;;;;;;130.95;46.22;;;2.60;98.40;;;;;;5106298;27;20035;-65
2022/03/26 05:14:57;;;;;;;127.97;45.13;;;2.60;98.40;;;;;;5082132;28;20039;-66
2022/03/26 05:17:23;;;;;;;113.78;41.83;;;2.60;98.70;;;;;;5109834;27;20486;-64
2022/03/26 05:19:48;;;;;;;121.60;43.28;;;2.60;98.50;;;;;;5111025;27;20104;-65
2022/03/26 05:22:14;;;;;;;123.88;42.33;;;2.60;98.60;;;;;;5104982;27;20051;-65
2022/03/26 05:24:39;;;;;;;124.03;43.78;;;2.50;98.60;;;;;;5101910;27;20031;-65
2022/03/26 05:27:05;;;;;;;127.93;43.75;;;2.50;98.50;;;;;;5101857;28;20494;-64
2022/03/26 05:29:30;;;;;;;113.95;41.95;;;2.50;98.30;;;;;;5128942;27;20091;-65
2022/03/26 05:31:56;;;;;;;114.95;41.42;;;2.40;98.20;;;;;;5094449;27;20032;-65
2022/03/26 05:34:22;;;;;;;120.35;43.65;;;2.50;98.40;;;;;;5094079;27;20043;-64
2022/03/26 05:36:48;;;;;;;125.85;43.22;;;2.40;98.70;;;;;;5104438;27;20035;-65
2022/03/26 05:39:13;;;;;;;115.90;41.58;;;2.40;99.00;;;;;;5098706;27;20040;-65
2022/03/26 05:41:39;;;;;;;121.78;43.08;;;2.40;99.30;;;;;;5095349;28;20047;-65
2022/03/26 05:44:05;;;;;;;124.07;44.78;;;2.40;99.60;;;;;;5120644;27;20042;-64
2022/03/26 05:46:30;;;;;;;123.63;44.47;;;2.40;99.80;;;;;;5100493;27;20034;-65
2022/03/26 05:48:56;;;;;;;129.80;44.25;;;2.50;99.50;;;;;;5080141;27;20126;-64
2022/03/26 05:51:21;;;;;;;118.13;42.60;;;2.50;99.30;;;;;;5100046;28;20343;-64
2022/03/26 05:53:49;;;;;;;122.38;44.63;;;2.50;99.40;;;;;;5090018;28;20570;-65
2022/03/26 05:56:15;;;;;;;121.65;41.50;;;2.60;99.40;;;;;;5096512;27;20050;-64
2022/03/26 05:58:41;;;;;;;113.88;43.03;;;2.50;99.20;;;;;;5076971;27;20054;-65
2022/03/26 06:01:06;;;;;;;123.05;43.25;;;2.60;99.20;;;;;;5109071;27;20039;-65
2022/03/26 06:03:32;;;;;;;132.15;44.78;;;2.60;99.90;;;;;;5119689;27;20043;-65
2022/03/26 06:05:58;;;;;;;126.47;45.00;;;2.60;99.90;;;;;;5114128;27;20038;-64
2022/03/26 06:08:24;;;;;;;120.18;43.47;;;2.80;99.90;;;;;;5100925;27;20120;-65
2022/03/26 06:10:49;;;;;;;140.98;49.47;;;2.90;99.90;;;;;;5098035;27;20039;-65
2022/03/26 06:13:15;;;;;;;137.20;48.13;;;2.90;99.90;;;;;;5105827;27;20107;-64
2022/03/26 06:15:42;;;;;;;153.23;51.28;;;3.10;99.90;;;;;;5110794;27;20397;-66
2022/03/26 06:18:09;;;;;;;139.43;52.33;;;3.20;99.90;;;;;;5095797;27;20059;-64
2022/03/26 06:20:35;;;;;;;150.30;52.03;;;3.30;99.90;;;;;;5109142;27;20412;-64
2022/03/26 06:23:01;;;;;;;148.10;51.17;;;3.40;99.90;;;;;;5108032;27;20038;-65
2022/03/26 06:25:26;;;;;;;153.70;54.17;;;3.60;99.90;;;;;;5102603;27;20368;-64
2022/03/26 06:27:52;;;;;;;155.40;55.30;;;3.90;99.90;;;;;;5107168;27;20099;-65
2022/03/26 06:30:17;;;;;;;145.10;55.78;;;4.00;99.90;;;;;;5105089;27;20043;-65
2022/03/26 06:32:43;;;;;;;140.05;53.75;;;4.30;99.90;;;;;;5097586;28;20071;-66
2022/03/26 06:35:09;;;;;;;137.43;52.95;;;4.60;99.90;;;;;;5092840;27;20482;-65
2022/03/26 06:37:35;;;;;;;146.55;56.70;;;4.90;99.90;;;;;;5099991;27;20527;-65
2022/03/26 06:40:01;;;;;;;142.65;57.45;;;5.20;99.90;;;;;;5108242;27;20166;-66
2022/03/26 06:42:27;;;;;;;137.43;55.25;;;5.40;99.90;;;;;;5110573;27;20074;-66
2022/03/26 06:44:59;;;;;;;142.95;56.75;;;5.70;99.90;;;;;;5110486;27;20482;-66
2022/03/26 06:47:28;;;;;;;143.02;58.63;;;6.00;99.90;;;;;;5102382;27;20059;-65
2022/03/26 06:49:55;;;;;;;135.23;58.97;;;6.20;99.90;;;;;;5108871;27;20057;-66
2022/03/26 06:52:22;;;;;;;140.40;58.92;;;6.50;99.90;;;;;;5109576;27;20057;-66
2022/03/26 06:54:47;;;;;;;133.43;57.15;;;6.80;99.90;;;;;;5109244;27;20481;-66
2022/03/26 06:57:13;;;;;;;135.05;56.63;;;7.10;99.90;;;;;;5110739;27;20110;-66
2022/03/26 06:59:39;;;;;;;129.23;58.97;;;7.40;99.90;;;;;;5108880;28;20034;-66
2022/03/26 07:02:04;;;;;;;129.88;58.60;;;7.70;99.90;;;;;;5093011;28;20047;-66
2022/03/26 07:04:30;;;;;;;130.02;58.58;;;7.90;99.80;;;;;;5090749;27;20076;-66
2022/03/26 07:06:56;;;;;;;130.73;57.90;;;8.20;99.00;;;;;;5092460;27;20031;-67
2022/03/26 07:09:23;;;;;;;123.55;55.67;;;8.60;98.30;;;;;;5109175;27;20092;-67
2022/03/26 07:11:52;;;;;;;120.95;56.05;;;8.80;97.40;;;;;;5084890;27;20389;-67
2022/03/26 07:14:18;;;;;;;113.72;55.13;;;9.20;96.30;;;;;;5110217;27;20039;-67
2022/03/26 07:16:44;;;;;;;114.47;54.20;;;9.50;95.30;;;;;;5106920;28;20035;-66
2022/03/26 07:19:10;;;;;;;105.35;50.97;;;9.70;94.70;;;;;;5096725;27;20057;-66
2022/03/26 07:21:37;;;;;;;108.05;50.88;;;10.00;93.90;;;;;;5107072;28;20067;-67
2022/03/26 07:24:04;;;;;;;97.18;47.72;;;10.20;93.10;;;;;;5089677;28;20093;-67
2022/03/26 07:26:30;;;;;;;100.68;49.65;;;10.50;92.00;;;;;;5094534;28;20376;-66
2022/03/26 07:28:55;;;;;;;99.57;47.65;;;10.70;91.30;;;;;;5107871;27;20039;-67
2022/03/26 07:31:22;;;;;;;101.00;49.03;;;10.90;90.40;;;;;;5092735;28;20577;-66
2022/03/26 07:33:47;;;;;;;93.47;45.15;;;11.10;87.90;;;;;;5096117;28;20119;-67
2022/03/26 07:36:13;;;;;;;95.10;46.53;;;11.40;86.80;;;;;;5104218;28;20636;-67
2022/03/26 07:38:38;;;;;;;96.82;45.25;;;11.70;85.10;;;;;;5097045;28;20105;-67
2022/03/26 07:41:04;;;;;;;95.63;45.78;;;11.90;82.80;;;;;;5095920;28;20036;-68
2022/03/26 07:43:30;;;;;;;100.53;46.92;;;12.20;82.40;;;;;;5106965;28;20047;-68
2022/03/26 07:45:55;;;;;;;88.18;45.30;;;12.50;80.80;;;;;;5109164;28;20137;-66
2022/03/26 07:48:21;;;;;;;86.80;43.15;;;12.70;79.90;;;;;;5099593;28;20058;-67
2022/03/26 07:50:49;;;;;;;82.63;42.15;;;12.90;78.60;;;;;;5107878;28;20042;-67
2022/03/26 07:53:15;;;;;;;84.07;42.78;;;13.10;77.10;;;;;;5104167;28;20154;-68
2022/03/26 07:55:41;;;;;;;81.47;42.40;;;13.40;75.80;;;;;;5095193;28;20057;-67
2022/03/26 07:58:07;;;;;;;76.03;39.35;;;13.50;74.50;;;;;;5120833;28;20039;-67
2022/03/26 08:00:32;;;;;;;74.57;38.92;;;13.60;74.00;;;;;;5104866;28;20049;-67
2022/03/26 08:02:58;;;;;;;77.05;38.17;;;13.50;73.10;;;;;;5092143;28;20399;-67
2022/03/26 08:05:23;;;;;;;79.50;39.60;;;13.50;72.80;;;;;;5108645;28;20035;-67
2022/03/26 08:07:49;;;;;;;72.28;36.25;;;13.40;71.70;;;;;;5106560;28;20379;-68
2022/03/26 08:10:15;;;;;;;70.07;35.80;;;13.30;71.90;;;;;;5094700;28;20036;-67
2022/03/26 08:12:40;;;;;;;69.88;35.95;;;13.30;70.00;;;;;;5108930;28;20041;-67
2022/03/26 08:15:06;;;;;;;71.80;35.20;;;13.20;69.30;;;;;;5091943;28;20039;-67
2022/03/26 08:17:32;;;;;;;72.38;34.92;;;13.20;68.80;;;;;;5103289;28;20064;-66
2022/03/26 08:19:57;;;;;;;73.88;36.17;;;13.30;67.80;;;;;;5095992;28;20536;-67
2022/03/26 08:22:23;;;;;;;62.25;32.45;;;13.40;67.10;;;;;;5095240;27;20686;-67
2022/03/26 08:24:49;;;;;;;78.97;36.13;;;13.40;66.40;;;;;;5097953;27;20327;-67
2022/03/26 08:27:14;;;;;;;68.97;35.38;;;13.40;66.00;;;;;;5102500;28;20123;-67
2022/03/26 08:29:40;;;;;;;73.78;34.83;;;13.40;65.50;;;;;;5115247;27;20036;-67
2022/03/26 08:32:07;;;;;;;75.85;36.20;;;13.40;66.10;;;;;;5108907;27;20066;-68
2022/03/26 08:34:33;;;;;;;74.28;34.65;;;13.40;65.40;;;;;;5096743;27;20039;-68
2022/03/26 08:36:58;;;;;;;67.38;32.60;;;13.50;64.80;;;;;;5110305;28;20034;-68
2022/03/26 08:39:24;;;;;;;68.50;32.75;;;13.50;64.30;;;;;;5103368;27;20039;-66
2022/03/26 08:41:50;;;;;;;71.13;33.17;;;13.60;64.10;;;;;;5114657;27;20571;-67
2022/03/26 08:44:15;;;;;;;69.75;32.28;;;13.70;63.90;;;;;;5112766;27;20070;-66
2022/03/26 08:46:41;;;;;;;69.18;32.80;;;13.80;63.60;;;;;;5112779;27;20027;-67
2022/03/26 08:49:07;;;;;;;70.95;33.90;;;13.90;63.60;;;;;;5110808;27;20068;-68
2022/03/26 08:51:33;;;;;;;66.10;32.65;;;14.10;63.30;;;;;;5116375;27;20042;-68
2022/03/26 08:53:58;;;;;;;62.97;31.77;;;14.10;63.30;;;;;;5111474;27;20035;-67
2022/03/26 08:56:24;;;;;;;64.47;29.90;;;14.20;63.20;;;;;;5103371;28;20039;-68
2022/03/26 08:58:49;;;;;;;56.63;28.20;;;14.30;63.10;;;;;;5094290;28;20394;-67
2022/03/26 09:01:15;;;;;;;47.33;25.75;;;14.60;63.10;;;;;;5099962;28;20034;-67
2022/03/26 09:03:43;;;;;;;52.35;24.60;;;14.80;62.70;;;;;;5137634;27;20117;-67
2022/03/26 09:06:09;;;;;;;49.25;25.65;;;15.10;62.10;;;;;;5112970;27;20125;-67
2022/03/26 09:08:35;;;;;;;46.08;23.88;;;15.30;61.70;;;;;;5092193;27;20104;-68
2022/03/26 09:11:03;;;;;;;41.17;23.23;;;15.50;61.80;;;;;;5082355;27;20092;-67
2022/03/26 09:13:28;;;;;;;46.00;22.73;;;15.50;62.00;;;;;;5106642;27;20035;-66
2022/03/26 09:15:54;;;;;;;43.95;24.60;;;15.50;62.30;;;;;;5117780;27;20049;-66
2022/03/26 09:18:21;;;;;;;42.15;22.48;;;15.50;62.60;;;;;;5103312;28;20185;-66
2022/03/26 09:20:47;;;;;;;39.72;22.20;;;15.60;62.70;;;;;;5129871;27;20039;-67
2022/03/26 09:23:12;;;;;;;38.05;20.77;;;15.70;62.70;;;;;;5118124;27;21256;-67
2022/03/26 09:25:38;;;;;;;38.72;22.88;;;15.80;62.30;;;;;;5107250;27;20028;-67
2022/03/26 09:28:04;;;;;;;42.55;23.63;;;15.80;62.30;;;;;;5111384;28;20046;-67
2022/03/26 09:30:31;;;;;;;44.83;23.40;;;15.70;62.80;;;;;;5109370;28;20138;-68
2022/03/26 09:32:57;;;;;;;40.45;22.48;;;15.80;62.90;;;;;;5094613;28;20052;-66
2022/03/26 09:35:23;;;;;;;38.75;21.15;;;15.80;63.30;;;;;;5104450;28;20434;-67
2022/03/26 09:37:48;;;;;;;37.85;21.83;;;15.90;63.40;;;;;;5105769;27;20092;-67
2022/03/26 09:40:14;;;;;;;37.88;21.38;;;15.90;63.30;;;;;;5107930;27;20138;-66
2022/03/26 09:42:40;;;;;;;36.35;19.38;;;15.80;63.30;;;;;;5125740;27;20097;-67
2022/03/26 09:45:08;;;;;;;39.13;21.05;;;15.90;63.20;;;;;;5110486;28;20075;-67
2022/03/26 09:47:34;;;;;;;35.60;19.88;;;15.90;63.20;;;;;;5105452;28;20047;-67
2022/03/26 09:50:01;;;;;;;38.83;19.88;;;16.00;62.80;;;;;;5101837;28;20039;-66
2022/03/26 09:52:27;;;;;;;35.40;20.05;;;16.10;62.70;;;;;;5106959;28;20047;-67
2022/03/26 09:54:56;;;;;;;38.67;20.88;;;16.20;62.70;;;;;;5109489;27;20036;-67
2022/03/26 09:57:22;;;;;;;27.60;17.08;;;16.20;62.40;;;;;;5109249;28;20055;-67
2022/03/26 09:59:47;;;;;;;26.00;14.63;;;16.30;62.00;;;;;;5110863;27;20035;-68
2022/03/26 10:02:13;;;;;;;24.15;14.07;;;16.30;60.80;;;;;;5097985;27;20429;-67
2022/03/26 10:04:40;;;;;;;23.02;13.70;;;16.50;60.20;;;;;;5107077;28;20035;-66
2022/03/26 10:07:07;;;;;;;21.65;13.20;;;16.60;59.20;;;;;;5084675;28;20117;-67
2022/03/26 10:09:39;;;;;;;24.88;14.45;;;16.70;58.70;;;;;;5096799;28;20119;-66
2022/03/26 10:12:11;;;;;;;26.75;14.98;;;16.70;58.70;;;;;;5088682;28;20054;-67
2022/03/26 10:14:48;;;;;;;22.50;13.38;;;16.80;57.70;;;;;;5102069;28;20028;-72
2022/03/26 10:17:26;;;;;;;24.88;12.52;;;16.80;57.40;;;;;;5107215;28;20040;-67
2022/03/26 10:19:56;;;;;;;21.17;12.93;;;17.00;56.90;;;;;;5089229;28;20471;-67
2022/03/26 10:22:28;;;;;;;23.20;12.85;;;17.10;57.70;;;;;;5097773;28;20059;-67
2022/03/26 10:24:55;;;;;;;20.70;13.35;;;17.10;57.50;;;;;;5109029;28;20110;-67
2022/03/26 10:27:21;;;;;;;25.33;13.20;;;17.10;57.20;;;;;;5100338;28;20119;-66
2022/03/26 10:29:51;;;;;;;20.65;12.52;;;17.10;56.70;;;;;;5103886;28;20115;-67
2022/03/26 10:32:40;;;;;;;;;;;17.00;56.70;;;;;;5104283;28;20043;-68
2022/03/26 10:35:10;;;;;;;21.85;12.98;;;17.00;56.00;;;;;;5090849;28;19955;-67
2022/03/26 10:38:03;;;;;;;22.02;13.20;;;17.10;56.80;;;;;;5102807;28;20040;-68
2022/03/26 10:40:37;;;;;;;20.38;13.35;;;17.10;56.40;;;;;;5115679;27;20500;-68
2022/03/26 10:43:09;;;;;;;22.35;11.60;;;17.10;56.60;;;;;;5107353;28;20054;-66
2022/03/26 10:45:57;;;;;;;21.45;11.82;;;17.10;56.40;;;;;;5103859;28;20044;-66
2022/03/26 10:48:24;;;;;;;23.70;12.00;;;17.00;56.70;;;;;;5103805;28;20416;-67
2022/03/26 10:50:58;;;;;;;26.55;12.52;;;17.20;56.00;;;;;;5099696;28;20079;-69
2022/03/26 10:53:39;;;;;;;40.60;11.77;;;17.10;56.10;;;;;;5093492;28;20132;-68
2022/03/26 10:56:06;;;;;;;;;;;17.20;56.30;;;;;;5100258;28;20452;-67
2022/03/26 10:58:33;;;;;;;21.25;12.05;;;17.30;56.80;;;;;;5106099;27;19915;-67
2022/03/26 11:00:59;;;;;;;21.80;11.38;;;17.40;56.50;;;;;;5106358;28;20067;-67
2022/03/26 11:03:25;;;;;;;17.65;10.63;;;17.40;56.70;;;;;;5101623;28;20067;-68
2022/03/26 11:05:54;;;;;;;19.85;11.23;;;17.50;56.80;;;;;;5102531;28;20464;-67
2022/03/26 11:08:20;;;;;;;17.23;11.15;;;17.60;56.40;;;;;;5101210;28;20605;-67
2022/03/26 11:10:46;;;;;;;19.08;10.32;;;17.50;56.20;;;;;;5095147;28;20051;-67
2022/03/26 11:13:12;;;;;;;17.30;10.73;;;17.50;56.50;;;;;;5111031;28;20050;-67
2022/03/26 11:16:07;;;;;;;18.45;11.18;;;17.70;56.50;;;;;;5107587;28;20067;-68
2022/03/26 11:18:49;;;;;;;19.52;10.02;;;17.60;55.90;;;;;;5072949;28;20048;-67
2022/03/26 11:21:49;;;;;;;16.77;9.65;;;17.60;56.40;;;;;;5101463;28;20046;-67
2022/03/26 11:24:40;;;;;;;16.93;10.40;;;17.70;56.00;;;;;;5091594;28;20089;-72
2022/03/26 11:27:34;;;;;;;16.45;9.48;;;17.70;55.90;;;;;;5107301;28;20116;-68
2022/03/26 11:30:08;;;;;;;12.77;8.43;;;17.70;55.30;;;;;;5107304;28;20047;-67
2022/03/26 11:32:43;;;;;;;14.00;8.30;;;17.80;55.20;;;;;;5098331;28;20082;-67
2022/03/26 11:35:14;;;;;;;12.18;8.18;;;17.70;55.30;;;;;;5094598;28;20175;-67
2022/03/26 11:37:54;;;;;;;11.70;8.27;;;17.80;55.00;;;;;;5104940;28;20047;-67
2022/03/26 11:40:43;;;;;;;12.25;8.45;;;17.70;55.10;;;;;;5099282;28;20048;-66
2022/03/26 11:43:15;;;;;;;10.50;7.72;;;17.60;54.90;;;;;;5098765;28;20054;-66
2022/03/26 11:51:23;;;;;;;13.50;8.60;;;17.60;54.80;;;;;;5108148;28;20047;-68
2022/03/26 11:53:55;;;;;;;11.93;8.65;;;17.60;55.00;;;;;;5072935;28;20048;-68
2022/03/26 11:56:24;;;;;;;15.77;9.07;;;17.80;55.00;;;;;;5102161;27;20043;-67
2022/03/26 11:59:07;;;;;;;12.38;8.05;;;17.60;55.20;;;;;;5108520;27;20121;-73
2022/03/26 12:01:38;;;;;;;14.70;8.48;;;17.70;54.60;;;;;;5092595;27;20040;-70
2022/03/26 12:04:24;;;;;;;12.85;7.68;;;17.70;55.00;;;;;;5105334;27;20031;-71
2022/03/26 12:07:00;;;;;;;12.93;7.72;;;17.70;54.40;;;;;;5102746;28;20120;-67
2022/03/26 12:09:29;;;;;;;13.98;7.45;;;17.60;54.80;;;;;;5100341;28;20032;-69
2022/03/26 12:12:16;;;;;;;12.65;7.28;;;17.50;54.70;;;;;;5090768;28;20169;-67
2022/03/26 12:15:11;;;;;;;13.68;7.20;;;17.50;55.40;;;;;;5090340;28;20402;-69
2022/03/26 12:17:45;;;;;;;11.52;6.30;;;17.40;54.80;;;;;;5104578;28;20048;-67
2022/03/26 12:20:36;;;;;;;12.68;6.07;;;17.60;55.00;;;;;;5108846;27;20044;-67
2022/03/26 12:23:06;;;;;;;10.57;6.55;;;17.60;54.10;;;;;;5105054;27;20035;-71
2022/03/26 12:25:37;;;;;;;10.73;6.40;;;17.70;54.70;;;;;;5099468;27;20431;-67
2022/03/26 12:28:03;;;;;;;10.23;6.45;;;17.80;54.50;;;;;;5107817;27;20116;-68
2022/03/26 12:30:30;;;;;;;9.02;6.00;;;18.00;53.70;;;;;;5093145;27;20047;-71
2022/03/26 12:32:58;;;;;;;11.77;6.18;;;18.20;53.80;;;;;;5111162;27;20039;-67
2022/03/26 12:35:24;;;;;;;10.27;6.72;;;18.60;53.30;;;;;;5114179;27;20038;-68
2022/03/26 12:37:53;;;;;;;12.23;6.28;;;18.80;52.40;;;;;;5109624;27;20047;-66
2022/03/26 12:40:20;;;;;;;9.57;6.18;;;19.10;52.20;;;;;;5112083;27;20050;-68
2022/03/26 12:42:52;;;;;;;8.45;5.53;;;19.50;51.30;;;;;;5098503;27;20043;-69